sensor_id;sensor_type;location;lat;lon;timestamp;P1;durP1;ratioP1;P2;durP2;ratioP2
28926;SDS011;16038;47.692;9.400;2022-09-02T00:00:59;4.43;;;3.65;;
28926;SDS011;16038;47.692;9.400;2022-09-02T00:03:27;5.30;;;3.70;;
28926;SDS011;16038;47.692;9.400;2022-09-02T00:05:55;6.55;;;4.28;;
28926;SDS011;16038;47.692;9.400;2022-09-02T00:08:21;7.53;;;4.40;;
28926;SDS011;16038;47.692;9.400;2022-09-02T00:10:46;4.97;;;3.88;;
28926;SDS011;16038;47.692;9.400;2022-09-02T00:13:13;4.47;;;3.58;;
28926;SDS011;16038;47.692;9.400;2022-09-02T00:15:41;7.97;;;4.20;;
28926;SDS011;16038;47.692;9.400;2022-09-02T00:18:07;4.32;;;3.75;;
28926;SDS011;16038;47.692;9.400;2022-09-02T00:20:38;6.18;;;3.90;;
28926;SDS011;16038;47.692;9.400;2022-09-02T00:23:05;4.80;;;3.75;;
28926;SDS011;16038;47.692;9.400;2022-09-02T00:25:32;4.38;;;3.38;;
28926;SDS011;16038;47.692;9.400;2022-09-02T00:27:59;5.85;;;3.63;;
28926;SDS011;16038;47.692;9.400;2022-09-02T00:30:24;6.72;;;3.63;;
28926;SDS011;16038;47.692;9.400;2022-09-02T00:32:50;5.10;;;3.75;;
28926;SDS011;16038;47.692;9.400;2022-09-02T00:35:15;8.48;;;3.53;;
28926;SDS011;16038;47.692;9.400;2022-09-02T00:37:41;4.97;;;3.75;;
28926;SDS011;16038;47.692;9.400;2022-09-02T00:40:07;5.90;;;3.35;;
28926;SDS011;16038;47.692;9.400;2022-09-02T00:42:33;5.10;;;3.50;;
28926;SDS011;16038;47.692;9.400;2022-09-02T00:44:59;9.23;;;3.42;;
28926;SDS011;16038;47.692;9.400;2022-09-02T00:47:26;8.98;;;3.35;;
28926;SDS011;16038;47.692;9.400;2022-09-02T00:49:55;5.55;;;3.55;;
28926;SDS011;16038;47.692;9.400;2022-09-02T00:54:58;6.40;;;3.90;;
28926;SDS011;16038;47.692;9.400;2022-09-02T00:57:39;5.82;;;3.47;;
28926;SDS011;16038;47.692;9.400;2022-09-02T01:00:13;5.25;;;3.45;;
28926;SDS011;16038;47.692;9.400;2022-09-02T01:02:54;6.15;;;2.97;;
28926;SDS011;16038;47.692;9.400;2022-09-02T01:05:23;6.00;;;3.40;;
28926;SDS011;16038;47.692;9.400;2022-09-02T01:07:51;5.85;;;3.40;;
28926;SDS011;16038;47.692;9.400;2022-09-02T01:10:20;4.90;;;3.47;;
28926;SDS011;16038;47.692;9.400;2022-09-02T01:12:48;6.03;;;3.30;;
28926;SDS011;16038;47.692;9.400;2022-09-02T01:17:47;5.68;;;3.22;;
28926;SDS011;16038;47.692;9.400;2022-09-02T01:20:15;5.07;;;3.20;;
28926;SDS011;16038;47.692;9.400;2022-09-02T01:22:43;4.88;;;3.13;;
28926;SDS011;16038;47.692;9.400;2022-09-02T01:25:11;9.10;;;3.17;;
28926;SDS011;16038;47.692;9.400;2022-09-02T01:27:44;7.15;;;3.75;;
28926;SDS011;16038;47.692;9.400;2022-09-02T01:30:12;5.63;;;3.67;;
28926;SDS011;16038;47.692;9.400;2022-09-02T01:32:40;5.32;;;3.33;;
28926;SDS011;16038;47.692;9.400;2022-09-02T01:35:06;5.05;;;3.63;;
28926;SDS011;16038;47.692;9.400;2022-09-02T01:37:32;6.38;;;3.67;;
28926;SDS011;16038;47.692;9.400;2022-09-02T01:39:58;6.10;;;3.00;;
28926;SDS011;16038;47.692;9.400;2022-09-02T01:42:24;4.35;;;3.08;;
28926;SDS011;16038;47.692;9.400;2022-09-02T01:44:50;5.18;;;3.30;;
28926;SDS011;16038;47.692;9.400;2022-09-02T01:47:18;7.18;;;3.38;;
28926;SDS011;16038;47.692;9.400;2022-09-02T01:49:45;4.05;;;3.13;;
28926;SDS011;16038;47.692;9.400;2022-09-02T01:52:11;5.60;;;3.55;;
28926;SDS011;16038;47.692;9.400;2022-09-02T01:54:37;7.75;;;3.42;;
28926;SDS011;16038;47.692;9.400;2022-09-02T01:57:03;7.32;;;3.22;;
28926;SDS011;16038;47.692;9.400;2022-09-02T01:59:29;5.43;;;2.92;;
28926;SDS011;16038;47.692;9.400;2022-09-02T02:01:55;3.90;;;3.10;;
28926;SDS011;16038;47.692;9.400;2022-09-02T02:04:20;6.80;;;3.20;;
28926;SDS011;16038;47.692;9.400;2022-09-02T02:06:48;5.05;;;3.03;;
28926;SDS011;16038;47.692;9.400;2022-09-02T02:09:14;4.45;;;2.78;;
28926;SDS011;16038;47.692;9.400;2022-09-02T02:11:43;9.80;;;3.28;;
28926;SDS011;16038;47.692;9.400;2022-09-02T02:14:09;6.95;;;3.65;;
28926;SDS011;16038;47.692;9.400;2022-09-02T02:16:36;5.43;;;3.50;;
28926;SDS011;16038;47.692;9.400;2022-09-02T02:19:02;5.20;;;3.45;;
28926;SDS011;16038;47.692;9.400;2022-09-02T02:21:29;7.95;;;3.83;;
28926;SDS011;16038;47.692;9.400;2022-09-02T02:23:55;8.48;;;3.65;;
28926;SDS011;16038;47.692;9.400;2022-09-02T02:26:24;4.40;;;3.10;;
28926;SDS011;16038;47.692;9.400;2022-09-02T02:28:49;4.20;;;3.15;;
28926;SDS011;16038;47.692;9.400;2022-09-02T02:31:15;5.30;;;3.13;;
28926;SDS011;16038;47.692;9.400;2022-09-02T02:33:40;6.07;;;3.60;;
28926;SDS011;16038;47.692;9.400;2022-09-02T02:36:06;5.00;;;3.28;;
28926;SDS011;16038;47.692;9.400;2022-09-02T02:38:32;7.30;;;3.45;;
28926;SDS011;16038;47.692;9.400;2022-09-02T02:40:58;7.18;;;3.47;;
28926;SDS011;16038;47.692;9.400;2022-09-02T02:43:24;6.68;;;3.75;;
28926;SDS011;16038;47.692;9.400;2022-09-02T02:45:50;6.85;;;3.47;;
28926;SDS011;16038;47.692;9.400;2022-09-02T02:48:16;4.28;;;3.65;;
28926;SDS011;16038;47.692;9.400;2022-09-02T02:50:42;4.78;;;3.40;;
28926;SDS011;16038;47.692;9.400;2022-09-02T02:53:07;5.22;;;3.25;;
28926;SDS011;16038;47.692;9.400;2022-09-02T02:55:33;5.40;;;3.17;;
28926;SDS011;16038;47.692;9.400;2022-09-02T02:57:58;4.03;;;3.40;;
28926;SDS011;16038;47.692;9.400;2022-09-02T03:00:27;4.97;;;3.47;;
28926;SDS011;16038;47.692;9.400;2022-09-02T03:02:58;5.63;;;3.40;;
28926;SDS011;16038;47.692;9.400;2022-09-02T03:05:28;4.88;;;3.35;;
28926;SDS011;16038;47.692;9.400;2022-09-02T03:07:55;6.68;;;3.40;;
28926;SDS011;16038;47.692;9.400;2022-09-02T03:10:20;7.00;;;4.10;;
28926;SDS011;16038;47.692;9.400;2022-09-02T03:12:47;5.43;;;3.97;;
28926;SDS011;16038;47.692;9.400;2022-09-02T03:15:14;4.70;;;3.90;;
28926;SDS011;16038;47.692;9.400;2022-09-02T03:17:46;5.60;;;3.95;;
28926;SDS011;16038;47.692;9.400;2022-09-02T03:20:13;7.60;;;4.38;;
28926;SDS011;16038;47.692;9.400;2022-09-02T03:22:41;4.47;;;3.67;;
28926;SDS011;16038;47.692;9.400;2022-09-02T03:25:08;5.35;;;3.92;;
28926;SDS011;16038;47.692;9.400;2022-09-02T03:27:39;6.05;;;3.70;;
28926;SDS011;16038;47.692;9.400;2022-09-02T03:32:33;6.25;;;3.70;;
28926;SDS011;16038;47.692;9.400;2022-09-02T03:34:59;6.88;;;4.15;;
28926;SDS011;16038;47.692;9.400;2022-09-02T03:37:26;5.10;;;4.00;;
28926;SDS011;16038;47.692;9.400;2022-09-02T03:39:51;5.65;;;3.72;;
28926;SDS011;16038;47.692;9.400;2022-09-02T03:42:17;5.85;;;4.05;;
28926;SDS011;16038;47.692;9.400;2022-09-02T03:44:42;6.85;;;4.32;;
28926;SDS011;16038;47.692;9.400;2022-09-02T03:47:08;8.05;;;3.70;;
28926;SDS011;16038;47.692;9.400;2022-09-02T03:49:33;7.88;;;4.38;;
28926;SDS011;16038;47.692;9.400;2022-09-02T03:52:00;4.75;;;3.65;;
28926;SDS011;16038;47.692;9.400;2022-09-02T03:54:25;4.68;;;3.47;;
28926;SDS011;16038;47.692;9.400;2022-09-02T03:56:51;5.00;;;3.40;;
28926;SDS011;16038;47.692;9.400;2022-09-02T03:59:16;6.70;;;3.67;;
28926;SDS011;16038;47.692;9.400;2022-09-02T04:01:42;6.45;;;3.90;;
28926;SDS011;16038;47.692;9.400;2022-09-02T04:04:08;5.40;;;3.67;;
28926;SDS011;16038;47.692;9.400;2022-09-02T04:06:34;5.68;;;4.15;;
28926;SDS011;16038;47.692;9.400;2022-09-02T04:09:00;7.28;;;4.00;;
28926;SDS011;16038;47.692;9.400;2022-09-02T04:11:26;5.18;;;4.07;;
28926;SDS011;16038;47.692;9.400;2022-09-02T04:13:52;6.85;;;3.90;;
28926;SDS011;16038;47.692;9.400;2022-09-02T04:16:19;5.30;;;3.58;;
28926;SDS011;16038;47.692;9.400;2022-09-02T04:18:51;5.03;;;3.70;;
28926;SDS011;16038;47.692;9.400;2022-09-02T04:21:17;4.90;;;3.72;;
28926;SDS011;16038;47.692;9.400;2022-09-02T04:23:44;6.30;;;3.90;;
28926;SDS011;16038;47.692;9.400;2022-09-02T04:26:11;5.40;;;3.83;;
28926;SDS011;16038;47.692;9.400;2022-09-02T04:28:38;7.65;;;3.80;;
28926;SDS011;16038;47.692;9.400;2022-09-02T04:31:05;5.97;;;3.95;;
28926;SDS011;16038;47.692;9.400;2022-09-02T04:33:32;9.32;;;4.28;;
28926;SDS011;16038;47.692;9.400;2022-09-02T04:35:58;5.10;;;4.05;;
28926;SDS011;16038;47.692;9.400;2022-09-02T04:38:24;7.45;;;4.53;;
28926;SDS011;16038;47.692;9.400;2022-09-02T04:40:49;5.05;;;4.28;;
28926;SDS011;16038;47.692;9.400;2022-09-02T04:43:15;9.45;;;4.43;;
28926;SDS011;16038;47.692;9.400;2022-09-02T04:45:42;5.55;;;4.50;;
28926;SDS011;16038;47.692;9.400;2022-09-02T04:48:09;4.55;;;4.00;;
28926;SDS011;16038;47.692;9.400;2022-09-02T04:50:35;6.07;;;4.80;;
28926;SDS011;16038;47.692;9.400;2022-09-02T04:53:03;8.00;;;5.10;;
28926;SDS011;16038;47.692;9.400;2022-09-02T04:55:29;6.20;;;4.63;;
28926;SDS011;16038;47.692;9.400;2022-09-02T04:57:55;6.57;;;5.20;;
28926;SDS011;16038;47.692;9.400;2022-09-02T05:00:20;6.45;;;4.55;;
28926;SDS011;16038;47.692;9.400;2022-09-02T05:02:46;11.80;;;5.57;;
28926;SDS011;16038;47.692;9.400;2022-09-02T05:05:11;7.43;;;4.38;;
28926;SDS011;16038;47.692;9.400;2022-09-02T05:07:37;9.68;;;5.53;;
28926;SDS011;16038;47.692;9.400;2022-09-02T05:10:03;11.93;;;5.85;;
28926;SDS011;16038;47.692;9.400;2022-09-02T05:12:30;6.65;;;4.53;;
28926;SDS011;16038;47.692;9.400;2022-09-02T05:14:58;6.70;;;5.57;;
28926;SDS011;16038;47.692;9.400;2022-09-02T05:17:25;7.60;;;5.40;;
28926;SDS011;16038;47.692;9.400;2022-09-02T05:19:52;6.38;;;4.50;;
28926;SDS011;16038;47.692;9.400;2022-09-02T05:22:19;8.50;;;4.07;;
28926;SDS011;16038;47.692;9.400;2022-09-02T05:24:45;5.05;;;3.85;;
28926;SDS011;16038;47.692;9.400;2022-09-02T05:27:11;6.25;;;4.18;;
28926;SDS011;16038;47.692;9.400;2022-09-02T05:29:37;5.75;;;4.10;;
28926;SDS011;16038;47.692;9.400;2022-09-02T05:32:02;5.35;;;3.97;;
28926;SDS011;16038;47.692;9.400;2022-09-02T05:34:29;7.13;;;4.10;;
28926;SDS011;16038;47.692;9.400;2022-09-02T05:36:54;5.35;;;4.30;;
28926;SDS011;16038;47.692;9.400;2022-09-02T05:39:21;6.97;;;4.10;;
28926;SDS011;16038;47.692;9.400;2022-09-02T05:41:46;5.05;;;4.00;;
28926;SDS011;16038;47.692;9.400;2022-09-02T05:44:12;5.95;;;3.88;;
28926;SDS011;16038;47.692;9.400;2022-09-02T05:46:37;9.52;;;4.35;;
28926;SDS011;16038;47.692;9.400;2022-09-02T05:49:03;5.72;;;3.60;;
28926;SDS011;16038;47.692;9.400;2022-09-02T05:51:48;5.18;;;3.83;;
28926;SDS011;16038;47.692;9.400;2022-09-02T05:54:18;7.70;;;3.85;;
28926;SDS011;16038;47.692;9.400;2022-09-02T05:56:46;6.10;;;3.63;;
28926;SDS011;16038;47.692;9.400;2022-09-02T05:59:13;4.63;;;3.40;;
28926;SDS011;16038;47.692;9.400;2022-09-02T06:01:39;5.15;;;3.17;;
28926;SDS011;16038;47.692;9.400;2022-09-02T06:04:05;8.43;;;3.60;;
28926;SDS011;16038;47.692;9.400;2022-09-02T06:06:31;4.88;;;3.30;;
28926;SDS011;16038;47.692;9.400;2022-09-02T06:08:58;7.45;;;3.97;;
28926;SDS011;16038;47.692;9.400;2022-09-02T06:11:24;7.63;;;4.05;;
28926;SDS011;16038;47.692;9.400;2022-09-02T06:13:51;7.55;;;3.33;;
28926;SDS011;16038;47.692;9.400;2022-09-02T06:16:20;6.72;;;3.53;;
28926;SDS011;16038;47.692;9.400;2022-09-02T06:18:46;4.93;;;3.45;;
28926;SDS011;16038;47.692;9.400;2022-09-02T06:21:13;5.72;;;3.67;;
28926;SDS011;16038;47.692;9.400;2022-09-02T06:23:40;7.53;;;3.88;;
28926;SDS011;16038;47.692;9.400;2022-09-02T06:26:07;5.35;;;3.33;;
28926;SDS011;16038;47.692;9.400;2022-09-02T06:28:34;5.45;;;3.30;;
28926;SDS011;16038;47.692;9.400;2022-09-02T06:31:13;9.02;;;4.00;;
28926;SDS011;16038;47.692;9.400;2022-09-02T06:33:41;6.15;;;3.83;;
28926;SDS011;16038;47.692;9.400;2022-09-02T06:36:09;5.32;;;3.90;;
28926;SDS011;16038;47.692;9.400;2022-09-02T06:38:38;8.18;;;3.30;;
28926;SDS011;16038;47.692;9.400;2022-09-02T06:41:05;4.32;;;3.08;;
28926;SDS011;16038;47.692;9.400;2022-09-02T06:43:31;6.45;;;3.85;;
28926;SDS011;16038;47.692;9.400;2022-09-02T06:45:57;8.13;;;3.67;;
28926;SDS011;16038;47.692;9.400;2022-09-02T06:48:23;4.28;;;3.20;;
28926;SDS011;16038;47.692;9.400;2022-09-02T06:50:49;9.98;;;3.33;;
28926;SDS011;16038;47.692;9.400;2022-09-02T06:53:14;5.60;;;3.50;;
28926;SDS011;16038;47.692;9.400;2022-09-02T06:55:42;5.95;;;3.30;;
28926;SDS011;16038;47.692;9.400;2022-09-02T06:58:08;6.15;;;3.42;;
28926;SDS011;16038;47.692;9.400;2022-09-02T07:00:35;7.38;;;3.65;;
28926;SDS011;16038;47.692;9.400;2022-09-02T07:03:02;6.10;;;3.70;;
28926;SDS011;16038;47.692;9.400;2022-09-02T07:05:46;5.90;;;3.30;;
28926;SDS011;16038;47.692;9.400;2022-09-02T07:08:22;8.15;;;3.55;;
28926;SDS011;16038;47.692;9.400;2022-09-02T07:10:47;6.20;;;3.72;;
28926;SDS011;16038;47.692;9.400;2022-09-02T07:13:13;5.25;;;3.50;;
28926;SDS011;16038;47.692;9.400;2022-09-02T07:15:39;5.03;;;3.33;;
28926;SDS011;16038;47.692;9.400;2022-09-02T07:18:05;6.18;;;4.00;;
28926;SDS011;16038;47.692;9.400;2022-09-02T07:20:30;8.18;;;4.28;;
28926;SDS011;16038;47.692;9.400;2022-09-02T07:22:56;6.20;;;4.35;;
28926;SDS011;16038;47.692;9.400;2022-09-02T07:25:21;5.72;;;4.10;;
28926;SDS011;16038;47.692;9.400;2022-09-02T07:27:46;7.28;;;3.85;;
28926;SDS011;16038;47.692;9.400;2022-09-02T07:30:12;5.20;;;3.63;;
28926;SDS011;16038;47.692;9.400;2022-09-02T07:32:38;10.13;;;3.85;;
28926;SDS011;16038;47.692;9.400;2022-09-02T07:35:04;9.00;;;3.92;;
28926;SDS011;16038;47.692;9.400;2022-09-02T07:37:31;7.38;;;3.85;;
28926;SDS011;16038;47.692;9.400;2022-09-02T07:39:59;6.75;;;3.75;;
28926;SDS011;16038;47.692;9.400;2022-09-02T07:42:26;8.18;;;3.92;;
28926;SDS011;16038;47.692;9.400;2022-09-02T07:44:52;5.82;;;3.45;;
28926;SDS011;16038;47.692;9.400;2022-09-02T07:47:17;8.18;;;4.30;;
28926;SDS011;16038;47.692;9.400;2022-09-02T07:49:43;5.78;;;3.70;;
28926;SDS011;16038;47.692;9.400;2022-09-02T07:52:08;6.65;;;3.83;;
28926;SDS011;16038;47.692;9.400;2022-09-02T07:54:33;4.97;;;3.35;;
28926;SDS011;16038;47.692;9.400;2022-09-02T07:56:59;5.40;;;4.07;;
28926;SDS011;16038;47.692;9.400;2022-09-02T07:59:24;11.63;;;3.88;;
28926;SDS011;16038;47.692;9.400;2022-09-02T08:01:50;5.85;;;3.42;;
28926;SDS011;16038;47.692;9.400;2022-09-02T08:04:17;6.72;;;3.30;;
28926;SDS011;16038;47.692;9.400;2022-09-02T08:06:45;5.15;;;3.75;;
28926;SDS011;16038;47.692;9.400;2022-09-02T08:09:11;5.57;;;3.72;;
28926;SDS011;16038;47.692;9.400;2022-09-02T08:11:37;5.13;;;3.65;;
28926;SDS011;16038;47.692;9.400;2022-09-02T08:14:06;5.32;;;3.60;;
28926;SDS011;16038;47.692;9.400;2022-09-02T08:16:33;7.90;;;4.18;;
28926;SDS011;16038;47.692;9.400;2022-09-02T08:18:59;5.75;;;3.20;;
28926;SDS011;16038;47.692;9.400;2022-09-02T08:21:24;9.70;;;3.85;;
28926;SDS011;16038;47.692;9.400;2022-09-02T08:23:50;7.22;;;3.47;;
28926;SDS011;16038;47.692;9.400;2022-09-02T08:26:15;5.28;;;3.63;;
28926;SDS011;16038;47.692;9.400;2022-09-02T08:28:42;5.05;;;3.38;;
28926;SDS011;16038;47.692;9.400;2022-09-02T08:31:07;5.22;;;3.63;;
28926;SDS011;16038;47.692;9.400;2022-09-02T08:33:33;6.45;;;3.67;;
28926;SDS011;16038;47.692;9.400;2022-09-02T08:36:06;8.13;;;3.60;;
28926;SDS011;16038;47.692;9.400;2022-09-02T08:38:33;6.13;;;3.95;;
28926;SDS011;16038;47.692;9.400;2022-09-02T08:40:59;7.68;;;3.97;;
28926;SDS011;16038;47.692;9.400;2022-09-02T08:43:43;4.65;;;3.50;;
28926;SDS011;16038;47.692;9.400;2022-09-02T08:46:10;5.18;;;3.58;;
28926;SDS011;16038;47.692;9.400;2022-09-02T08:48:41;10.70;;;4.13;;
28926;SDS011;16038;47.692;9.400;2022-09-02T08:51:19;6.70;;;3.42;;
28926;SDS011;16038;47.692;9.400;2022-09-02T08:56:36;7.35;;;3.60;;
28926;SDS011;16038;47.692;9.400;2022-09-02T08:59:02;6.13;;;4.07;;
28926;SDS011;16038;47.692;9.400;2022-09-02T09:06:55;5.75;;;3.67;;
28926;SDS011;16038;47.692;9.400;2022-09-02T09:17:37;5.60;;;3.85;;
28926;SDS011;16038;47.692;9.400;2022-09-02T09:20:19;5.97;;;3.28;;
28926;SDS011;16038;47.692;9.400;2022-09-02T09:22:47;7.82;;;3.28;;
28926;SDS011;16038;47.692;9.400;2022-09-02T09:25:15;6.82;;;3.38;;
28926;SDS011;16038;47.692;9.400;2022-09-02T09:27:42;6.32;;;3.60;;
28926;SDS011;16038;47.692;9.400;2022-09-02T09:30:10;7.00;;;2.75;;
28926;SDS011;16038;47.692;9.400;2022-09-02T09:32:40;4.93;;;2.90;;
28926;SDS011;16038;47.692;9.400;2022-09-02T09:35:12;7.22;;;3.42;;
28926;SDS011;16038;47.692;9.400;2022-09-02T09:37:43;6.43;;;2.90;;
28926;SDS011;16038;47.692;9.400;2022-09-02T09:42:41;4.30;;;2.85;;
28926;SDS011;16038;47.692;9.400;2022-09-02T09:45:14;5.50;;;2.92;;
28926;SDS011;16038;47.692;9.400;2022-09-02T09:48:05;6.95;;;3.17;;
28926;SDS011;16038;47.692;9.400;2022-09-02T09:50:36;6.60;;;3.17;;
28926;SDS011;16038;47.692;9.400;2022-09-02T09:53:17;5.93;;;3.30;;
28926;SDS011;16038;47.692;9.400;2022-09-02T09:58:33;6.22;;;3.60;;
28926;SDS011;16038;47.692;9.400;2022-09-02T10:08:58;4.65;;;2.80;;
28926;SDS011;16038;47.692;9.400;2022-09-02T10:11:30;6.22;;;3.13;;
28926;SDS011;16038;47.692;9.400;2022-09-02T10:14:01;6.95;;;2.80;;
28926;SDS011;16038;47.692;9.400;2022-09-02T10:19:36;7.70;;;3.10;;
28926;SDS011;16038;47.692;9.400;2022-09-02T10:25:24;6.05;;;2.83;;
28926;SDS011;16038;47.692;9.400;2022-09-02T10:30:30;4.53;;;3.30;;
28926;SDS011;16038;47.692;9.400;2022-09-02T10:35:46;8.80;;;4.22;;
28926;SDS011;16038;47.692;9.400;2022-09-02T10:38:51;4.90;;;3.13;;
28926;SDS011;16038;47.692;9.400;2022-09-02T10:43:52;7.55;;;3.28;;
28926;SDS011;16038;47.692;9.400;2022-09-02T10:46:23;7.10;;;3.33;;
28926;SDS011;16038;47.692;9.400;2022-09-02T10:48:59;5.10;;;2.97;;
28926;SDS011;16038;47.692;9.400;2022-09-02T10:51:48;5.88;;;3.53;;
28926;SDS011;16038;47.692;9.400;2022-09-02T10:57:18;5.05;;;3.33;;
28926;SDS011;16038;47.692;9.400;2022-09-02T10:59:48;7.32;;;3.22;;
28926;SDS011;16038;47.692;9.400;2022-09-02T11:02:34;5.82;;;3.35;;
28926;SDS011;16038;47.692;9.400;2022-09-02T11:08:13;4.90;;;3.30;;
28926;SDS011;16038;47.692;9.400;2022-09-02T11:13:22;4.43;;;3.13;;
28926;SDS011;16038;47.692;9.400;2022-09-02T11:15:58;6.82;;;3.20;;
28926;SDS011;16038;47.692;9.400;2022-09-02T11:21:28;3.75;;;2.70;;
28926;SDS011;16038;47.692;9.400;2022-09-02T11:24:04;6.22;;;2.80;;
28926;SDS011;16038;47.692;9.400;2022-09-02T11:32:30;5.85;;;3.47;;
28926;SDS011;16038;47.692;9.400;2022-09-02T11:35:05;7.07;;;3.25;;
28926;SDS011;16038;47.692;9.400;2022-09-02T11:42:57;4.88;;;3.08;;
28926;SDS011;16038;47.692;9.400;2022-09-02T11:53:41;3.78;;;2.80;;
28926;SDS011;16038;47.692;9.400;2022-09-02T11:58:47;5.45;;;3.58;;
28926;SDS011;16038;47.692;9.400;2022-09-02T12:03:41;3.83;;;2.90;;
28926;SDS011;16038;47.692;9.400;2022-09-02T12:06:12;4.75;;;3.03;;
28926;SDS011;16038;47.692;9.400;2022-09-02T12:11:07;5.95;;;3.40;;
28926;SDS011;16038;47.692;9.400;2022-09-02T12:21:28;6.97;;;4.10;;
28926;SDS011;16038;47.692;9.400;2022-09-02T12:27:01;8.23;;;4.20;;
28926;SDS011;16038;47.692;9.400;2022-09-02T12:31:46;4.78;;;3.42;;
28926;SDS011;16038;47.692;9.400;2022-09-02T12:36:49;4.07;;;3.08;;
28926;SDS011;16038;47.692;9.400;2022-09-02T12:50:24;6.68;;;4.78;;
28926;SDS011;16038;47.692;9.400;2022-09-02T12:55:59;5.43;;;3.65;;
28926;SDS011;16038;47.692;9.400;2022-09-02T12:58:52;4.88;;;3.40;;
28926;SDS011;16038;47.692;9.400;2022-09-02T13:04:18;5.30;;;3.63;;
28926;SDS011;16038;47.692;9.400;2022-09-02T13:07:02;7.70;;;4.47;;
28926;SDS011;16038;47.692;9.400;2022-09-02T13:09:43;7.97;;;4.65;;
28926;SDS011;16038;47.692;9.400;2022-09-02T13:15:30;4.78;;;3.53;;
28926;SDS011;16038;47.692;9.400;2022-09-02T13:24:03;4.32;;;3.45;;
28926;SDS011;16038;47.692;9.400;2022-09-02T13:34:44;7.35;;;4.10;;
28926;SDS011;16038;47.692;9.400;2022-09-02T13:40:29;7.70;;;3.92;;
28926;SDS011;16038;47.692;9.400;2022-09-02T13:42:59;6.78;;;3.35;;
28926;SDS011;16038;47.692;9.400;2022-09-02T13:45:36;5.90;;;4.05;;
28926;SDS011;16038;47.692;9.400;2022-09-02T13:48:06;5.65;;;3.30;;
28926;SDS011;16038;47.692;9.400;2022-09-02T13:50:35;5.55;;;3.83;;
28926;SDS011;16038;47.692;9.400;2022-09-02T13:53:06;7.75;;;3.65;;
28926;SDS011;16038;47.692;9.400;2022-09-02T13:55:32;6.47;;;3.65;;
28926;SDS011;16038;47.692;9.400;2022-09-02T13:58:03;6.80;;;3.58;;
28926;SDS011;16038;47.692;9.400;2022-09-02T14:00:35;5.88;;;3.35;;
28926;SDS011;16038;47.692;9.400;2022-09-02T14:03:12;5.15;;;3.50;;
28926;SDS011;16038;47.692;9.400;2022-09-02T14:05:42;7.47;;;3.28;;
28926;SDS011;16038;47.692;9.400;2022-09-02T14:08:11;9.07;;;3.23;;
28926;SDS011;16038;47.692;9.400;2022-09-02T14:10:39;7.00;;;4.53;;
28926;SDS011;16038;47.692;9.400;2022-09-02T14:13:06;6.80;;;4.38;;
28926;SDS011;16038;47.692;9.400;2022-09-02T14:15:33;8.90;;;5.20;;
28926;SDS011;16038;47.692;9.400;2022-09-02T14:18:09;5.03;;;3.90;;
28926;SDS011;16038;47.692;9.400;2022-09-02T14:20:51;4.32;;;3.05;;
28926;SDS011;16038;47.692;9.400;2022-09-02T14:23:18;4.97;;;3.38;;
28926;SDS011;16038;47.692;9.400;2022-09-02T14:25:48;4.95;;;3.10;;
28926;SDS011;16038;47.692;9.400;2022-09-02T14:28:18;3.85;;;2.80;;
28926;SDS011;16038;47.692;9.400;2022-09-02T14:30:54;6.90;;;3.60;;
28926;SDS011;16038;47.692;9.400;2022-09-02T14:35:59;6.65;;;3.35;;
28926;SDS011;16038;47.692;9.400;2022-09-02T14:43:49;4.85;;;2.83;;
28926;SDS011;16038;47.692;9.400;2022-09-02T14:46:28;4.65;;;2.75;;
28926;SDS011;16038;47.692;9.400;2022-09-02T14:51:45;4.43;;;3.10;;
28926;SDS011;16038;47.692;9.400;2022-09-02T14:54:31;4.13;;;2.75;;
28926;SDS011;16038;47.692;9.400;2022-09-02T14:56:57;4.68;;;3.17;;
28926;SDS011;16038;47.692;9.400;2022-09-02T14:59:22;4.70;;;3.25;;
28926;SDS011;16038;47.692;9.400;2022-09-02T15:01:48;3.88;;;2.97;;
28926;SDS011;16038;47.692;9.400;2022-09-02T15:04:16;9.32;;;2.88;;
28926;SDS011;16038;47.692;9.400;2022-09-02T15:06:43;4.03;;;2.70;;
28926;SDS011;16038;47.692;9.400;2022-09-02T15:09:11;5.28;;;2.88;;
28926;SDS011;16038;47.692;9.400;2022-09-02T15:11:39;7.43;;;3.47;;
28926;SDS011;16038;47.692;9.400;2022-09-02T15:14:06;9.13;;;4.57;;
28926;SDS011;16038;47.692;9.400;2022-09-02T15:16:32;6.05;;;3.13;;
28926;SDS011;16038;47.692;9.400;2022-09-02T15:18:58;4.57;;;2.88;;
28926;SDS011;16038;47.692;9.400;2022-09-02T15:21:24;9.02;;;2.80;;
28926;SDS011;16038;47.692;9.400;2022-09-02T15:23:49;5.85;;;3.08;;
28926;SDS011;16038;47.692;9.400;2022-09-02T15:26:15;5.65;;;3.22;;
28926;SDS011;16038;47.692;9.400;2022-09-02T15:28:41;5.32;;;2.88;;
28926;SDS011;16038;47.692;9.400;2022-09-02T15:31:07;3.83;;;2.55;;
28926;SDS011;16038;47.692;9.400;2022-09-02T15:33:32;5.22;;;2.42;;
28926;SDS011;16038;47.692;9.400;2022-09-02T15:36:05;3.22;;;2.47;;
28926;SDS011;16038;47.692;9.400;2022-09-02T15:38:32;4.57;;;3.78;;
28926;SDS011;16038;47.692;9.400;2022-09-02T15:41:08;7.47;;;3.53;;
28926;SDS011;16038;47.692;9.400;2022-09-02T15:43:34;5.60;;;3.35;;
28926;SDS011;16038;47.692;9.400;2022-09-02T15:46:00;4.38;;;2.78;;
28926;SDS011;16038;47.692;9.400;2022-09-02T15:48:26;6.57;;;2.75;;
28926;SDS011;16038;47.692;9.400;2022-09-02T15:50:51;3.45;;;2.47;;
28926;SDS011;16038;47.692;9.400;2022-09-02T15:53:17;4.57;;;2.72;;
28926;SDS011;16038;47.692;9.400;2022-09-02T15:55:42;3.50;;;2.63;;
28926;SDS011;16038;47.692;9.400;2022-09-02T15:58:07;5.22;;;2.58;;
28926;SDS011;16038;47.692;9.400;2022-09-02T16:00:34;4.07;;;2.78;;
28926;SDS011;16038;47.692;9.400;2022-09-02T16:02:59;4.85;;;2.50;;
28926;SDS011;16038;47.692;9.400;2022-09-02T16:05:25;6.43;;;2.45;;
28926;SDS011;16038;47.692;9.400;2022-09-02T16:07:51;5.32;;;2.80;;
28926;SDS011;16038;47.692;9.400;2022-09-02T16:10:19;6.72;;;2.80;;
28926;SDS011;16038;47.692;9.400;2022-09-02T16:12:44;3.90;;;2.42;;
28926;SDS011;16038;47.692;9.400;2022-09-02T16:15:09;6.30;;;2.65;;
28926;SDS011;16038;47.692;9.400;2022-09-02T16:17:35;6.03;;;2.70;;
28926;SDS011;16038;47.692;9.400;2022-09-02T16:20:01;4.65;;;2.35;;
28926;SDS011;16038;47.692;9.400;2022-09-02T16:22:27;3.45;;;2.65;;
28926;SDS011;16038;47.692;9.400;2022-09-02T16:24:52;3.67;;;2.60;;
28926;SDS011;16038;47.692;9.400;2022-09-02T16:27:18;2.97;;;2.33;;
28926;SDS011;16038;47.692;9.400;2022-09-02T16:30:03;6.70;;;3.30;;
28926;SDS011;16038;47.692;9.400;2022-09-02T16:32:30;4.10;;;2.63;;
28926;SDS011;16038;47.692;9.400;2022-09-02T16:34:55;5.50;;;2.85;;
28926;SDS011;16038;47.692;9.400;2022-09-02T16:37:22;5.25;;;2.67;;
28926;SDS011;16038;47.692;9.400;2022-09-02T16:39:47;5.45;;;2.58;;
28926;SDS011;16038;47.692;9.400;2022-09-02T16:42:13;4.22;;;2.50;;
28926;SDS011;16038;47.692;9.400;2022-09-02T16:44:38;6.75;;;2.83;;
28926;SDS011;16038;47.692;9.400;2022-09-02T16:47:05;5.18;;;2.85;;
28926;SDS011;16038;47.692;9.400;2022-09-02T16:49:31;5.35;;;2.80;;
28926;SDS011;16038;47.692;9.400;2022-09-02T16:51:58;4.72;;;3.00;;
28926;SDS011;16038;47.692;9.400;2022-09-02T16:54:24;4.50;;;2.58;;
28926;SDS011;16038;47.692;9.400;2022-09-02T16:56:50;5.85;;;3.30;;
28926;SDS011;16038;47.692;9.400;2022-09-02T16:59:16;4.05;;;3.03;;
28926;SDS011;16038;47.692;9.400;2022-09-02T17:01:43;4.18;;;2.78;;
28926;SDS011;16038;47.692;9.400;2022-09-02T17:04:08;3.80;;;2.85;;
28926;SDS011;16038;47.692;9.400;2022-09-02T17:06:34;4.55;;;2.75;;
28926;SDS011;16038;47.692;9.400;2022-09-02T17:09:00;5.63;;;3.20;;
28926;SDS011;16038;47.692;9.400;2022-09-02T17:16:22;3.95;;;3.25;;
28926;SDS011;16038;47.692;9.400;2022-09-02T17:18:50;5.68;;;3.15;;
28926;SDS011;16038;47.692;9.400;2022-09-02T17:21:34;10.55;;;3.30;;
28926;SDS011;16038;47.692;9.400;2022-09-02T17:24:00;5.90;;;3.33;;
28926;SDS011;16038;47.692;9.400;2022-09-02T17:26:27;6.65;;;3.20;;
28926;SDS011;16038;47.692;9.400;2022-09-02T17:28:55;7.00;;;3.60;;
28926;SDS011;16038;47.692;9.400;2022-09-02T17:31:28;9.18;;;3.80;;
28926;SDS011;16038;47.692;9.400;2022-09-02T17:33:56;5.07;;;3.92;;